createdAt,value
2024-04-19T00:02:02.556Z,12.30
2024-04-19T00:04:29.574Z,12.40
2024-04-19T00:06:56.665Z,12.30
2024-04-19T00:09:24.165Z,12.30
2024-04-19T00:11:51.053Z,12.30
2024-04-19T00:14:18.149Z,12.30
2024-04-19T00:16:45.201Z,12.30
2024-04-19T00:19:12.035Z,12.30
2024-04-19T00:21:39.032Z,12.30
2024-04-19T00:24:06.394Z,12.30
2024-04-19T00:26:33.264Z,12.30
2024-04-19T00:29:00.154Z,12.30
2024-04-19T00:31:27.128Z,12.30
2024-04-19T00:33:54.130Z,12.30
2024-04-19T00:36:20.995Z,12.30
2024-04-19T00:38:47.952Z,12.30
2024-04-19T00:41:15.116Z,12.30
2024-04-19T00:43:42.029Z,12.30
2024-04-19T00:46:09.330Z,12.30
2024-04-19T00:48:37.268Z,12.30
2024-04-19T00:51:05.865Z,12.30
2024-04-19T00:53:34.363Z,12.30
2024-04-19T00:56:03.339Z,12.30
2024-04-19T00:58:31.038Z,12.30
2024-04-19T01:01:03.615Z,12.30
2024-04-19T01:03:32.306Z,12.30
2024-04-19T01:05:59.347Z,12.30
2024-04-19T01:08:28.906Z,12.20
2024-04-19T01:10:55.950Z,12.30
2024-04-19T01:13:22.914Z,12.30
2024-04-19T01:15:49.865Z,12.30
2024-04-19T01:18:17.123Z,12.30
2024-04-19T01:20:45.277Z,12.30
2024-04-19T01:23:17.354Z,12.20
2024-04-19T01:25:44.268Z,12.30
2024-04-19T01:28:13.075Z,12.30
2024-04-19T01:30:42.039Z,12.30
2024-04-19T01:33:09.129Z,12.20
2024-04-19T01:35:36.186Z,12.20
2024-04-19T01:38:03.441Z,12.20
2024-04-19T01:40:30.315Z,12.20
2024-04-19T01:42:57.181Z,12.20
2024-04-19T01:45:24.149Z,12.20
2024-04-19T01:47:51.297Z,12.20
2024-04-19T01:50:18.239Z,12.20
2024-04-19T01:52:45.170Z,12.20
2024-04-19T01:55:12.042Z,12.20
2024-04-19T01:57:39.021Z,12.20
2024-04-19T02:00:06.885Z,12.20
2024-04-19T02:02:33.887Z,12.20
2024-04-19T02:05:00.864Z,12.20
2024-04-19T02:07:27.688Z,12.20
2024-04-19T02:09:54.888Z,12.20
2024-04-19T02:12:21.735Z,12.20
2024-04-19T02:14:48.794Z,12.20
2024-04-19T02:17:16.169Z,12.20
2024-04-19T02:19:44.800Z,12.20
2024-04-19T02:22:11.846Z,12.20
2024-04-19T02:24:41.354Z,12.20
2024-04-19T02:27:19.474Z,12.20
2024-04-19T02:30:18.610Z,12.20
2024-04-19T02:32:45.812Z,12.20
2024-04-19T02:35:13.187Z,12.10
2024-04-19T02:37:40.219Z,12.20
2024-04-19T02:40:08.129Z,12.20
2024-04-19T02:42:35.260Z,12.10
2024-04-19T02:45:02.539Z,12.20
2024-04-19T02:47:29.458Z,12.10
2024-04-19T02:49:56.526Z,12.20
2024-04-19T02:52:23.730Z,12.10
2024-04-19T02:54:50.739Z,12.10
2024-04-19T02:57:17.982Z,12.10
2024-04-19T02:59:44.933Z,12.20
2024-04-19T03:02:12.045Z,12.10
2024-04-19T03:04:40.149Z,12.10
2024-04-19T03:07:07.348Z,12.10
2024-04-19T03:09:34.496Z,12.10
2024-04-19T03:12:01.549Z,12.10
2024-04-19T03:14:28.541Z,12.10
2024-04-19T03:16:55.762Z,12.10
2024-04-19T03:19:22.737Z,12.10
2024-04-19T03:21:51.795Z,12.10
2024-04-19T03:24:18.726Z,12.10
2024-04-19T03:26:46.798Z,12.10
2024-04-19T03:29:15.686Z,12.10
2024-04-19T03:31:42.671Z,12.10
2024-04-19T03:34:09.656Z,12.10
2024-04-19T03:36:36.629Z,12.10
2024-04-19T03:39:04.730Z,12.10
2024-04-19T03:41:34.598Z,12.10
2024-04-19T03:44:23.368Z,12.10
2024-04-19T03:46:50.311Z,12.10
2024-04-19T03:49:17.217Z,12.10
2024-04-19T03:51:44.196Z,12.10
2024-04-19T03:54:11.177Z,12.00
2024-04-19T03:56:38.067Z,12.10
2024-04-19T03:59:04.978Z,12.10
2024-04-19T04:01:31.926Z,12.10
2024-04-19T04:03:59.383Z,12.10
2024-04-19T04:06:26.563Z,12.00
2024-04-19T04:08:53.424Z,12.10
2024-04-19T04:11:20.277Z,12.10
2024-04-19T04:13:47.238Z,12.10
2024-04-19T04:16:14.198Z,12.00
2024-04-19T04:18:44.071Z,12.10
2024-04-19T04:21:11.002Z,12.00
2024-04-19T04:23:37.883Z,12.00
2024-04-19T04:26:04.947Z,12.00
2024-04-19T04:28:31.788Z,12.10
2024-04-19T04:30:58.732Z,12.00
2024-04-19T04:33:25.656Z,12.00
2024-04-19T04:35:52.477Z,12.00
2024-04-19T04:38:19.399Z,12.00
2024-04-19T04:40:46.321Z,12.00
2024-04-19T04:43:16.046Z,12.00
2024-04-19T04:45:43.583Z,12.00
2024-04-19T04:48:10.492Z,12.00
2024-04-19T04:50:37.480Z,12.00
2024-04-19T04:53:04.619Z,12.00
2024-04-19T04:55:32.500Z,12.00
2024-04-19T04:58:00.647Z,12.00
2024-04-19T05:00:30.816Z,12.00
2024-04-19T05:02:59.957Z,12.00
2024-04-19T05:05:27.215Z,12.00
2024-04-19T05:07:54.077Z,12.00
2024-04-19T05:10:21.576Z,12.00
2024-04-19T05:12:48.792Z,12.00
2024-04-19T05:15:16.168Z,12.00
2024-04-19T05:17:45.863Z,12.00
2024-04-19T05:20:12.783Z,12.00
2024-04-19T05:22:39.810Z,12.00
2024-04-19T05:25:08.678Z,12.00
2024-04-19T05:27:36.109Z,12.00
2024-04-19T05:30:03.201Z,12.00
2024-04-19T05:32:30.162Z,12.00
2024-04-19T05:34:57.062Z,12.00
2024-04-19T05:37:23.900Z,12.00
2024-04-19T05:39:50.829Z,12.00
2024-04-19T05:42:17.729Z,11.90
2024-04-19T05:44:44.814Z,12.00
2024-04-19T05:47:11.797Z,12.00
2024-04-19T05:49:38.746Z,12.00
2024-04-19T05:52:05.646Z,12.00
2024-04-19T05:54:34.519Z,12.00
2024-04-19T05:57:02.969Z,12.00
2024-04-19T05:59:29.821Z,12.00
2024-04-19T06:01:57.540Z,12.00
2024-04-19T06:04:24.693Z,12.00
2024-04-19T06:06:51.562Z,12.00
2024-04-19T06:09:18.514Z,12.00
2024-04-19T06:11:45.509Z,12.00
2024-04-19T06:14:12.334Z,12.00
2024-04-19T06:16:39.167Z,12.00
2024-04-19T06:19:06.249Z,11.90
2024-04-19T06:21:35.715Z,12.00
2024-04-19T06:24:02.546Z,11.90
2024-04-19T06:26:29.408Z,12.00
2024-04-19T06:28:56.273Z,12.00
2024-04-19T06:31:23.285Z,12.00
2024-04-19T06:33:50.277Z,12.00
2024-04-19T06:36:17.268Z,11.90
2024-04-19T06:38:44.248Z,11.90
2024-04-19T06:41:11.206Z,11.90
2024-04-19T06:43:38.145Z,12.00
2024-04-19T06:46:05.046Z,11.90
2024-04-19T06:48:32.073Z,11.90
2024-04-19T06:50:59.069Z,12.00
2024-04-19T06:53:25.899Z,11.90
2024-04-19T06:55:54.133Z,11.90
2024-04-19T06:58:21.135Z,12.00
2024-04-19T07:01:00.386Z,12.00
2024-04-19T07:03:35.885Z,11.90
2024-04-19T07:06:20.181Z,11.90
2024-04-19T07:08:54.428Z,12.00
2024-04-19T07:11:21.595Z,11.90
2024-04-19T07:13:49.056Z,11.90
2024-04-19T07:16:16.228Z,12.00
2024-04-19T07:18:46.582Z,12.00
2024-04-19T07:21:13.696Z,11.90
2024-04-19T07:23:40.535Z,11.90
2024-04-19T07:26:07.434Z,11.90
2024-04-19T07:28:34.513Z,11.90
2024-04-19T07:31:01.875Z,12.00
2024-04-19T07:33:28.970Z,11.90
2024-04-19T07:35:55.838Z,11.90
2024-04-19T07:38:22.658Z,11.90
2024-04-19T07:40:49.508Z,11.90
2024-04-19T07:43:16.389Z,11.90
2024-04-19T07:45:44.563Z,11.90
2024-04-19T07:48:12.198Z,11.90
2024-04-19T07:50:40.816Z,11.90
2024-04-19T07:53:09.780Z,11.90
2024-04-19T07:55:40.125Z,11.90
2024-04-19T07:58:07.211Z,11.90
2024-04-19T08:00:34.435Z,11.90
2024-04-19T08:03:01.474Z,11.90
2024-04-19T08:05:28.546Z,11.90
2024-04-19T08:07:57.401Z,11.90
2024-04-19T08:10:25.583Z,11.90
2024-04-19T08:12:52.537Z,11.90
2024-04-19T08:15:20.075Z,11.90
2024-04-19T08:17:46.942Z,11.90
2024-04-19T08:20:13.986Z,11.90
2024-04-19T08:22:41.190Z,11.90
2024-04-19T08:25:08.063Z,11.90
2024-04-19T08:27:36.337Z,11.90
2024-04-19T08:30:03.567Z,11.90
2024-04-19T08:32:30.523Z,11.90
2024-04-19T08:34:59.930Z,11.90
2024-04-19T08:37:27.252Z,11.90
2024-04-19T08:39:54.535Z,11.90
2024-04-19T08:42:22.483Z,11.90
2024-04-19T08:44:51.216Z,11.90
2024-04-19T08:47:19.601Z,11.90
2024-04-19T08:49:47.110Z,11.90
2024-04-19T08:52:39.190Z,11.80
2024-04-19T08:55:07.473Z,11.90
2024-04-19T08:57:38.259Z,11.90
2024-04-19T09:00:13.899Z,11.80
2024-04-19T09:02:42.416Z,11.80
2024-04-19T09:05:09.356Z,11.80
2024-04-19T09:07:36.829Z,11.90
2024-04-19T09:10:06.008Z,11.80
2024-04-19T09:12:35.187Z,11.80
2024-04-19T09:15:02.598Z,11.80
2024-04-19T09:17:31.014Z,11.80
2024-04-19T09:19:58.467Z,11.80
2024-04-19T09:22:25.539Z,11.80
2024-04-19T09:24:55.440Z,11.80
2024-04-19T09:27:23.181Z,11.80
2024-04-19T09:29:51.769Z,11.80
2024-04-19T09:32:22.376Z,11.80
2024-04-19T09:34:49.904Z,11.80
2024-04-19T09:37:17.269Z,11.80
2024-04-19T09:39:44.187Z,11.80
2024-04-19T09:42:11.155Z,11.80
2024-04-19T09:44:41.850Z,11.80
2024-04-19T09:47:11.874Z,11.80
2024-04-19T09:49:44.625Z,11.80
2024-04-19T09:52:20.492Z,11.80
2024-04-19T09:54:54.263Z,11.80
2024-04-19T09:57:23.129Z,11.80
2024-04-19T09:59:50.545Z,11.80
2024-04-19T10:02:24.888Z,11.80
2024-04-19T10:05:00.031Z,11.80
2024-04-19T10:07:28.521Z,11.80
2024-04-19T10:09:56.211Z,11.80
2024-04-19T10:12:23.254Z,11.80
2024-04-19T10:14:50.209Z,11.80
2024-04-19T10:17:17.844Z,11.80
2024-04-19T10:19:52.745Z,11.80
2024-04-19T10:22:25.266Z,11.80
2024-04-19T10:25:03.393Z,11.80
2024-04-19T10:27:31.348Z,11.80
2024-04-19T10:30:13.830Z,11.80
2024-04-19T10:32:53.788Z,11.80
2024-04-19T10:35:22.563Z,11.80
2024-04-19T10:37:49.504Z,11.80
2024-04-19T10:40:16.372Z,11.80
2024-04-19T10:42:43.337Z,11.80
2024-04-19T10:45:17.363Z,11.80
2024-04-19T10:47:45.230Z,11.80
2024-04-19T10:50:12.290Z,11.80
2024-04-19T10:52:39.272Z,11.80
2024-04-19T10:55:06.535Z,11.80
2024-04-19T10:57:33.562Z,11.80
2024-04-19T11:00:01.863Z,11.80
2024-04-19T11:02:30.674Z,11.80
2024-04-19T11:04:58.004Z,11.80
2024-04-19T11:07:25.474Z,11.80
2024-04-19T11:09:52.916Z,11.90
2024-04-19T11:12:20.043Z,11.80
2024-04-19T11:14:47.031Z,11.80
2024-04-19T11:17:13.907Z,11.80
2024-04-19T11:19:40.992Z,11.80
2024-04-19T11:22:08.125Z,11.80
2024-04-19T11:24:35.707Z,11.80
2024-04-19T11:27:03.277Z,11.80
2024-04-19T11:29:30.732Z,11.80
2024-04-19T11:31:57.714Z,11.90
2024-04-19T11:34:32.550Z,11.80
2024-04-19T11:37:05.141Z,11.80
2024-04-19T11:39:32.909Z,11.80
2024-04-19T11:42:00.683Z,11.80
2024-04-19T11:44:27.942Z,11.90
2024-04-19T11:46:55.456Z,11.80
2024-04-19T11:49:23.713Z,11.80
2024-04-19T11:51:50.663Z,11.80
2024-04-19T11:54:18.235Z,11.80
2024-04-19T11:56:45.251Z,11.90
2024-04-19T11:59:22.093Z,11.80
2024-04-19T12:01:51.583Z,11.80
2024-04-19T12:04:20.559Z,11.80
2024-04-19T12:06:48.485Z,11.80
2024-04-19T12:09:15.516Z,11.80
2024-04-19T12:12:06.164Z,11.80
2024-04-19T12:15:22.669Z,11.80
2024-04-19T12:17:27.128Z,11.80
2024-04-19T12:19:56.880Z,11.80
2024-04-19T12:22:26.547Z,11.80
2024-04-19T12:24:55.032Z,11.80
2024-04-19T12:27:22.483Z,11.80
2024-04-19T12:29:49.708Z,11.80
2024-04-19T12:32:16.907Z,11.80
2024-04-19T12:34:44.725Z,11.80
2024-04-19T12:37:11.931Z,11.80
2024-04-19T12:39:38.857Z,11.80
2024-04-19T12:42:06.188Z,11.80
2024-04-19T12:44:33.147Z,11.80
2024-04-19T12:47:00.285Z,11.80
2024-04-19T12:49:27.330Z,11.90
2024-04-19T12:51:56.351Z,11.90
2024-04-19T12:54:23.477Z,11.90
2024-04-19T12:56:50.598Z,11.90
2024-04-19T12:59:17.471Z,11.90
2024-04-19T13:01:44.451Z,11.90
2024-04-19T13:04:11.515Z,11.90
2024-04-19T13:06:38.683Z,11.80
2024-04-19T13:09:05.679Z,11.90
2024-04-19T13:11:32.801Z,11.90
2024-04-19T13:14:01.102Z,11.90
2024-04-19T13:16:30.774Z,11.90
2024-04-19T13:18:57.951Z,11.90
2024-04-19T13:21:28.117Z,11.90
2024-04-19T13:23:58.371Z,11.90
2024-04-19T13:26:26.283Z,11.90
2024-04-19T13:28:55.595Z,11.90
2024-04-19T13:31:23.300Z,11.90
2024-04-19T13:33:50.243Z,11.90
2024-04-19T13:36:18.806Z,11.90
2024-04-19T13:38:46.758Z,11.90
2024-04-19T13:41:13.671Z,11.90
2024-04-19T13:43:40.865Z,11.90
2024-04-19T13:46:07.896Z,11.90
2024-04-19T13:48:39.016Z,11.90
2024-04-19T13:51:07.384Z,11.90
2024-04-19T13:53:36.847Z,11.90
2024-04-19T13:56:04.533Z,11.90
2024-04-19T13:58:32.121Z,11.90
2024-04-19T14:00:59.112Z,11.90
2024-04-19T14:03:25.993Z,11.90
2024-04-19T14:05:52.872Z,11.90
2024-04-19T14:08:19.872Z,11.90
2024-04-19T14:10:47.915Z,11.90
2024-04-19T14:13:15.722Z,11.90
2024-04-19T14:15:45.071Z,11.90
2024-04-19T14:18:11.945Z,11.90
2024-04-19T14:20:41.394Z,11.90
2024-04-19T14:23:08.181Z,11.90
2024-04-19T14:25:36.879Z,11.90
2024-04-19T14:28:03.890Z,11.90
2024-04-19T14:30:30.719Z,11.90
2024-04-19T14:32:58.788Z,11.90
2024-04-19T14:35:25.972Z,11.90
2024-04-19T14:37:54.491Z,11.90
2024-04-19T14:40:22.374Z,11.90
2024-04-19T14:42:50.604Z,11.90
2024-04-19T14:45:19.053Z,11.90
2024-04-19T14:47:46.179Z,11.90
2024-04-19T14:50:13.179Z,11.90
2024-04-19T14:52:45.134Z,11.90
2024-04-19T14:55:17.697Z,11.90
2024-04-19T14:57:44.769Z,11.90
2024-04-19T15:00:12.167Z,11.90
2024-04-19T15:02:39.179Z,11.90
2024-04-19T15:05:06.455Z,12.00
2024-04-19T15:07:33.427Z,12.00
2024-04-19T15:10:01.219Z,12.00
2024-04-19T15:12:28.154Z,11.90
2024-04-19T15:14:55.896Z,11.90
2024-04-19T15:17:22.818Z,12.00
2024-04-19T15:19:49.656Z,11.90
2024-04-19T15:22:16.548Z,12.00
2024-04-19T15:24:43.503Z,12.00
2024-04-19T15:27:10.402Z,12.00
2024-04-19T15:29:37.523Z,12.00
2024-04-19T15:32:04.690Z,11.90
2024-04-19T15:34:41.741Z,12.00
2024-04-19T15:37:14.561Z,12.00
2024-04-19T15:39:41.599Z,11.90
2024-04-19T15:42:12.285Z,12.00
2024-04-19T15:44:42.405Z,12.00
2024-04-19T15:47:16.004Z,11.90
2024-04-19T15:49:45.212Z,11.90
2024-04-19T15:52:12.228Z,11.90
2024-04-19T15:54:39.302Z,11.90
2024-04-19T15:57:06.160Z,12.00
2024-04-19T15:59:33.432Z,12.00
2024-04-19T16:02:00.244Z,11.90
2024-04-19T16:04:27.320Z,11.90
2024-04-19T16:06:54.394Z,11.90
2024-04-19T16:09:21.281Z,12.00
2024-04-19T16:11:48.192Z,12.00
2024-04-19T16:14:15.165Z,12.00
2024-04-19T16:16:43.630Z,12.00
2024-04-19T16:19:10.767Z,12.00
2024-04-19T16:21:38.715Z,12.00
2024-04-19T16:24:06.103Z,12.00
2024-04-19T16:26:34.387Z,11.90
2024-04-19T16:29:01.687Z,11.90
2024-04-19T16:31:29.478Z,12.00
2024-04-19T16:33:56.354Z,12.00
2024-04-19T16:36:23.352Z,11.90
2024-04-19T16:38:52.562Z,11.90
2024-04-19T16:41:20.232Z,12.00
2024-04-19T16:43:47.285Z,12.00
2024-04-19T16:46:14.237Z,11.90
2024-04-19T16:48:41.419Z,11.90
2024-04-19T16:51:08.356Z,11.90
2024-04-19T16:53:35.234Z,11.90
2024-04-19T16:56:04.717Z,11.90
2024-04-19T16:58:33.097Z,12.00
2024-04-19T17:01:00.053Z,11.90
2024-04-19T17:03:27.009Z,12.00
2024-04-19T17:05:54.043Z,11.90
2024-04-19T17:08:21.071Z,11.90
2024-04-19T17:10:48.080Z,12.00
2024-04-19T17:13:14.978Z,11.90
2024-04-19T17:15:41.874Z,11.90
2024-04-19T17:18:08.745Z,11.90
2024-04-19T17:20:41.755Z,11.90
2024-04-19T17:23:08.795Z,11.90
2024-04-19T17:25:35.766Z,11.90
2024-04-19T17:28:03.731Z,11.90
2024-04-19T17:30:30.770Z,11.90
2024-04-19T17:32:57.795Z,11.90
2024-04-19T17:35:24.686Z,11.90
2024-04-19T17:37:51.542Z,11.90
2024-04-19T17:40:18.471Z,11.90
2024-04-19T17:42:45.434Z,11.90
2024-04-19T17:45:12.300Z,11.90
2024-04-19T17:47:39.209Z,11.90
2024-04-19T17:50:06.519Z,11.90
2024-04-19T17:52:33.391Z,11.90
2024-04-19T17:55:00.353Z,11.90
2024-04-19T17:57:29.266Z,11.90
2024-04-19T17:59:56.218Z,11.80
2024-04-19T18:02:23.408Z,11.90
2024-04-19T18:04:50.406Z,11.90
2024-04-19T18:07:18.094Z,11.80
2024-04-19T18:09:45.059Z,11.90
2024-04-19T18:12:12.094Z,11.90
2024-04-19T18:14:38.956Z,11.90
2024-04-19T18:17:05.891Z,11.90
2024-04-19T18:19:32.818Z,11.90
2024-04-19T18:21:59.770Z,11.90
2024-04-19T18:24:31.365Z,11.90
2024-04-19T18:27:00.605Z,11.90
2024-04-19T18:29:27.849Z,11.90
2024-04-19T18:31:55.092Z,11.90
2024-04-19T18:34:23.321Z,11.90
2024-04-19T18:36:50.184Z,11.90
2024-04-19T18:39:17.145Z,11.90
2024-04-19T18:41:45.465Z,11.90
2024-04-19T18:44:12.781Z,11.90
2024-04-19T18:46:39.606Z,11.80
2024-04-19T18:49:10.786Z,11.80
2024-04-19T18:51:38.109Z,11.80
2024-04-19T18:54:05.207Z,11.80
2024-04-19T18:56:32.152Z,11.80
2024-04-19T18:58:59.105Z,11.80
2024-04-19T19:01:26.264Z,11.80
2024-04-19T19:03:54.017Z,11.80
2024-04-19T19:06:21.544Z,11.80
2024-04-19T19:08:48.447Z,11.80
2024-04-19T19:11:16.094Z,11.80
2024-04-19T19:13:43.476Z,11.80
2024-04-19T19:16:10.905Z,11.80
2024-04-19T19:18:37.955Z,11.70
2024-04-19T19:21:05.260Z,11.70
2024-04-19T19:23:32.486Z,11.70
2024-04-19T19:26:04.795Z,11.70
2024-04-19T19:28:31.935Z,11.70
2024-04-19T19:30:59.808Z,11.70
2024-04-19T19:33:26.931Z,11.70
2024-04-19T19:35:58.550Z,11.70
2024-04-19T19:38:25.450Z,11.70
2024-04-19T19:40:52.491Z,11.70
2024-04-19T19:43:21.589Z,11.70
2024-04-19T19:45:55.736Z,11.70
2024-04-19T19:48:23.629Z,11.70
2024-04-19T19:51:01.610Z,11.70
2024-04-19T19:53:29.248Z,11.60
2024-04-19T19:55:58.132Z,11.60
2024-04-19T19:58:26.458Z,11.60
2024-04-19T20:01:12.234Z,11.60
2024-04-19T20:03:57.689Z,11.60
2024-04-19T20:06:24.863Z,11.60
2024-04-19T20:08:53.297Z,11.60
2024-04-19T20:11:20.354Z,11.60
2024-04-19T20:13:50.319Z,11.60
2024-04-19T20:16:18.718Z,11.60
2024-04-19T20:18:46.114Z,11.60
2024-04-19T20:21:13.178Z,11.60
2024-04-19T20:23:41.362Z,11.60
2024-04-19T20:26:10.480Z,11.60
2024-04-19T20:28:38.224Z,11.60
2024-04-19T20:31:05.353Z,11.60
2024-04-19T20:33:32.882Z,11.60
2024-04-19T20:35:59.776Z,11.60
2024-04-19T20:38:26.728Z,11.60
2024-04-19T20:40:56.871Z,11.60
2024-04-19T20:43:23.963Z,11.60
2024-04-19T20:45:50.872Z,11.60
2024-04-19T20:48:18.123Z,11.60
2024-04-19T20:50:51.068Z,11.60
2024-04-19T20:53:18.553Z,11.60
2024-04-19T20:55:45.503Z,11.60
2024-04-19T20:58:12.916Z,11.60
2024-04-19T21:00:40.068Z,11.60
2024-04-19T21:03:07.237Z,11.60
2024-04-19T21:05:34.193Z,11.60
2024-04-19T21:08:01.270Z,11.60
2024-04-19T21:10:28.228Z,11.60
2024-04-19T21:12:55.312Z,11.60
2024-04-19T21:15:22.426Z,11.60
2024-04-19T21:17:49.304Z,11.60
2024-04-19T21:20:16.271Z,11.60
2024-04-19T21:22:43.215Z,11.50
2024-04-19T21:25:10.119Z,11.60
2024-04-19T21:27:37.127Z,11.60
2024-04-19T21:30:04.390Z,11.60
2024-04-19T21:32:31.353Z,11.50
2024-04-19T21:34:58.297Z,11.60
2024-04-19T21:37:25.129Z,11.60
2024-04-19T21:39:55.314Z,11.50
2024-04-19T21:42:23.131Z,11.60
2024-04-19T21:44:54.562Z,11.60
2024-04-19T21:47:21.744Z,11.50
2024-04-19T21:49:48.650Z,11.50
2024-04-19T21:52:15.565Z,11.50
2024-04-19T21:54:43.254Z,11.50
2024-04-19T21:57:10.382Z,11.50
2024-04-19T21:59:37.345Z,11.50
2024-04-19T22:02:04.364Z,11.50
2024-04-19T22:04:31.635Z,11.50
2024-04-19T22:06:58.802Z,11.50
2024-04-19T22:09:25.701Z,11.50
2024-04-19T22:11:52.720Z,11.50
2024-04-19T22:14:19.611Z,11.50
2024-04-19T22:16:46.694Z,11.50
2024-04-19T22:19:14.186Z,11.50
2024-04-19T22:21:41.436Z,11.50
2024-04-19T22:24:08.577Z,11.50
2024-04-19T22:26:35.712Z,11.50
2024-04-19T22:29:02.749Z,11.50
2024-04-19T22:31:29.637Z,11.50
2024-04-19T22:33:56.809Z,11.50
2024-04-19T22:36:24.653Z,11.50
2024-04-19T22:38:51.881Z,11.50
2024-04-19T22:41:18.780Z,11.50
2024-04-19T22:43:45.821Z,11.50
2024-04-19T22:46:12.799Z,11.50
2024-04-19T22:48:40.973Z,11.50
2024-04-19T22:51:08.160Z,11.50
2024-04-19T22:53:35.253Z,11.50
2024-04-19T22:56:02.282Z,11.50
2024-04-19T22:58:29.209Z,11.50
2024-04-19T23:01:07.774Z,11.50
2024-04-19T23:03:35.183Z,11.50
2024-04-19T23:06:09.846Z,11.50
2024-04-19T23:08:37.357Z,11.50
2024-04-19T23:11:04.924Z,11.50
2024-04-19T23:13:32.246Z,11.50
2024-04-19T23:15:59.341Z,11.50
2024-04-19T23:18:26.368Z,11.50
2024-04-19T23:21:00.402Z,11.50
2024-04-19T23:23:27.733Z,11.50
2024-04-19T23:26:04.915Z,11.40
2024-04-19T23:28:32.928Z,11.50
2024-04-19T23:31:01.909Z,11.50
2024-04-19T23:33:31.022Z,11.50
2024-04-19T23:35:59.265Z,11.40
2024-04-19T23:38:27.083Z,11.50
2024-04-19T23:40:57.519Z,11.50
2024-04-19T23:43:27.856Z,11.50
2024-04-19T23:45:54.776Z,11.50
2024-04-19T23:48:21.862Z,11.50
2024-04-19T23:50:48.884Z,11.40
2024-04-19T23:53:15.732Z,11.50
2024-04-19T23:55:42.551Z,11.40
2024-04-19T23:58:09.491Z,11.50
